Terminal Aerodrome Forecast
Issued by NWS

Home | Current Version | Previous Version | Text Only | Print | Product List | Glossary Off
Versions: 1 2 3 4 5 6 7 8 9 10 11 12 13 14

000
FTUS43 KMPX 222300
TAFRWF
TAF
KRWF 222320Z 2300/2324 17005KT P6SM SKC
     FM231500 17011KT P6SM SCT150
     FM231800 17013KT P6SM BKN040 OVC120=

USA.gov is the U.S. government's official web portal to all federal, state and local government web resources and services.